createdAt,value
2018-08-31T00:01:43.963Z,13.40
2018-08-31T00:04:34.534Z,13.30
2018-08-31T00:07:14.719Z,13.30
2018-08-31T00:09:53.915Z,13.20
2018-08-31T00:12:31.372Z,13.10
2018-08-31T00:14:59.416Z,13.10
2018-08-31T00:17:27.476Z,13.10
2018-08-31T00:19:55.627Z,13.00
2018-08-31T00:22:23.679Z,13.00
2018-08-31T00:25:03.331Z,13.00
2018-08-31T00:27:42.864Z,13.00
2018-08-31T00:30:22.364Z,12.90
2018-08-31T00:34:09.119Z,13.00
2018-08-31T00:36:48.659Z,13.00
2018-08-31T00:39:27.103Z,13.00
2018-08-31T00:44:25.520Z,13.00
2018-08-31T00:46:53.546Z,13.10
2018-08-31T00:49:21.603Z,13.10
2018-08-31T00:51:49.642Z,13.10
2018-08-31T00:54:17.747Z,13.10
2018-08-31T00:56:45.819Z,13.10
2018-08-31T00:59:13.857Z,13.10
2018-08-31T01:01:41.926Z,13.10
2018-08-31T01:04:13.847Z,13.00
2018-08-31T01:06:41.907Z,13.00
2018-08-31T01:09:09.986Z,12.90
2018-08-31T01:11:38.061Z,12.90
2018-08-31T01:14:06.116Z,12.80
2018-08-31T01:16:34.336Z,12.80
2018-08-31T01:19:02.503Z,12.80
2018-08-31T01:21:30.572Z,12.70
2018-08-31T01:23:58.639Z,12.70
2018-08-31T01:26:26.792Z,12.60
2018-08-31T01:28:54.884Z,12.60
2018-08-31T01:31:23.023Z,12.50
2018-08-31T01:33:51.090Z,12.40
2018-08-31T01:36:19.162Z,12.40
2018-08-31T01:38:47.221Z,12.30
2018-08-31T01:41:15.278Z,12.30
2018-08-31T01:43:43.337Z,12.30
2018-08-31T01:46:11.397Z,12.20
2018-08-31T01:48:39.467Z,12.20
2018-08-31T01:51:24.269Z,12.20
2018-08-31T01:53:52.332Z,12.10
2018-08-31T01:56:20.384Z,12.10
2018-08-31T01:58:48.468Z,12.10
2018-08-31T02:01:16.524Z,12.10
2018-08-31T02:03:44.581Z,12.10
2018-08-31T02:06:12.644Z,12.10
2018-08-31T02:08:46.201Z,12.10
2018-08-31T02:11:14.464Z,12.10
2018-08-31T02:13:42.525Z,12.10
2018-08-31T02:16:10.571Z,12.10
2018-08-31T02:18:38.619Z,12.00
2018-08-31T02:21:06.684Z,12.00
2018-08-31T02:23:34.950Z,12.00
2018-08-31T02:26:03.004Z,12.10
2018-08-31T02:28:31.053Z,12.10
2018-08-31T02:30:59.102Z,12.10
2018-08-31T02:33:27.152Z,12.10
2018-08-31T02:35:55.204Z,12.10
2018-08-31T02:38:23.248Z,12.10
2018-08-31T02:40:51.305Z,12.00
2018-08-31T02:43:19.357Z,12.00
2018-08-31T02:45:47.432Z,12.00
2018-08-31T02:48:15.492Z,12.00
2018-08-31T02:50:43.564Z,12.00
2018-08-31T02:53:11.662Z,12.00
2018-08-31T02:55:39.739Z,12.00
2018-08-31T02:58:07.803Z,12.00
2018-08-31T03:00:35.883Z,12.00
2018-08-31T03:03:03.941Z,11.90
2018-08-31T03:05:32.016Z,12.00
2018-08-31T03:08:00.075Z,11.90
2018-08-31T03:10:28.140Z,11.90
2018-08-31T03:12:56.217Z,11.90
2018-08-31T03:15:24.284Z,11.80
2018-08-31T03:17:52.576Z,11.80
2018-08-31T03:20:20.756Z,11.80
2018-08-31T03:22:48.821Z,11.80
2018-08-31T03:25:16.903Z,11.70
2018-08-31T03:27:44.965Z,11.70
2018-08-31T03:30:13.025Z,11.70
2018-08-31T03:32:41.087Z,11.70
2018-08-31T03:35:09.256Z,11.70
2018-08-31T03:37:37.309Z,11.70
2018-08-31T03:40:05.473Z,11.70
2018-08-31T03:42:33.630Z,11.60
2018-08-31T03:45:01.682Z,11.60
2018-08-31T03:47:29.772Z,11.60
2018-08-31T03:49:58.066Z,11.60
2018-08-31T03:52:26.132Z,11.50
2018-08-31T03:54:54.180Z,11.50
2018-08-31T03:57:22.249Z,11.50
2018-08-31T03:59:50.310Z,11.50
2018-08-31T04:02:18.363Z,11.50
2018-08-31T04:04:46.466Z,11.50
2018-08-31T04:07:14.619Z,11.50
2018-08-31T04:09:43.738Z,11.40
2018-08-31T04:12:11.838Z,11.50
2018-08-31T04:14:39.901Z,11.50
2018-08-31T04:17:08.141Z,11.50
2018-08-31T04:19:36.869Z,11.40
2018-08-31T04:22:04.941Z,11.40
2018-08-31T04:24:32.997Z,11.40
2018-08-31T04:27:01.057Z,11.50
2018-08-31T04:29:29.106Z,11.50
2018-08-31T04:31:57.179Z,11.60
2018-08-31T04:34:25.256Z,11.70
2018-08-31T04:36:53.633Z,11.70
2018-08-31T04:39:21.721Z,11.70
2018-08-31T04:41:49.768Z,11.70
2018-08-31T04:44:17.834Z,11.80
2018-08-31T04:46:45.891Z,11.80
2018-08-31T04:49:14.475Z,11.90
2018-08-31T04:51:42.531Z,12.00
2018-08-31T04:54:10.596Z,12.10
2018-08-31T04:56:38.645Z,12.30
2018-08-31T04:59:06.717Z,12.40
2018-08-31T05:01:34.930Z,12.60
2018-08-31T05:04:03.237Z,12.70
2018-08-31T05:06:31.299Z,12.90
2018-08-31T05:08:59.368Z,13.10
2018-08-31T05:11:27.436Z,13.30
2018-08-31T05:13:55.520Z,13.40
2018-08-31T05:16:23.592Z,13.50
2018-08-31T05:18:51.749Z,13.60
2018-08-31T05:21:19.860Z,13.70
2018-08-31T05:23:47.897Z,13.90
2018-08-31T05:26:15.968Z,14.20
2018-08-31T05:28:44.014Z,14.50
2018-08-31T05:31:12.715Z,14.90
2018-08-31T05:33:40.801Z,15.50
2018-08-31T05:36:08.892Z,16.20
2018-08-31T05:38:36.952Z,16.90
2018-08-31T05:41:05.157Z,17.30
2018-08-31T05:43:33.224Z,17.40
2018-08-31T05:46:01.292Z,17.70
2018-08-31T05:48:29.395Z,18.10
2018-08-31T05:50:57.431Z,18.50
2018-08-31T05:53:25.555Z,18.70
2018-08-31T05:55:53.564Z,18.70
2018-08-31T05:58:21.637Z,18.60
2018-08-31T06:00:49.703Z,18.50
2018-08-31T06:03:17.761Z,18.40
2018-08-31T06:05:45.814Z,18.10
2018-08-31T06:08:13.894Z,17.70
2018-08-31T06:10:41.945Z,17.30
2018-08-31T06:13:10.217Z,16.80
2018-08-31T06:15:38.277Z,16.60
2018-08-31T06:18:06.368Z,16.50
2018-08-31T06:20:34.857Z,16.50
2018-08-31T06:23:02.920Z,16.50
2018-08-31T06:25:30.981Z,16.40
2018-08-31T06:27:59.033Z,16.30
2018-08-31T06:30:27.100Z,16.40
2018-08-31T06:32:55.172Z,16.40
2018-08-31T06:35:23.231Z,16.30
2018-08-31T06:37:51.333Z,16.40
2018-08-31T06:40:19.393Z,16.50
2018-08-31T06:42:48.202Z,16.70
2018-08-31T06:45:16.373Z,16.80
2018-08-31T06:47:44.603Z,17.00
2018-08-31T06:50:12.677Z,17.20
2018-08-31T06:52:40.740Z,17.30
2018-08-31T06:55:08.804Z,17.30
2018-08-31T06:57:36.879Z,17.50
2018-08-31T07:00:05.637Z,17.90
2018-08-31T07:02:33.781Z,18.10
2018-08-31T07:05:01.865Z,18.40
2018-08-31T07:07:29.947Z,18.50
2018-08-31T07:09:58.009Z,18.60
2018-08-31T07:12:26.214Z,18.50
2018-08-31T07:14:54.261Z,18.50
2018-08-31T07:17:22.499Z,18.80
2018-08-31T07:19:50.665Z,19.00
2018-08-31T07:22:18.633Z,19.20
2018-08-31T07:24:46.705Z,19.30
2018-08-31T07:27:14.754Z,19.50
2018-08-31T07:29:42.810Z,19.40
2018-08-31T07:32:10.883Z,19.20
2018-08-31T07:34:38.951Z,19.00
2018-08-31T07:37:07.218Z,18.80
2018-08-31T07:39:35.560Z,18.50
2018-08-31T07:42:03.599Z,18.30
2018-08-31T07:44:31.660Z,18.10
2018-08-31T07:46:59.743Z,18.00
2018-08-31T07:49:28.150Z,17.90
2018-08-31T07:51:56.582Z,17.80
2018-08-31T07:54:24.977Z,17.70
2018-08-31T07:56:53.042Z,17.60
2018-08-31T07:59:21.165Z,17.50
2018-08-31T08:01:49.249Z,17.70
2018-08-31T08:04:17.320Z,18.00
2018-08-31T08:06:45.399Z,18.40
2018-08-31T08:09:13.460Z,18.80
2018-08-31T08:11:41.521Z,19.40
2018-08-31T08:14:09.611Z,19.90
2018-08-31T08:16:37.676Z,20.50
2018-08-31T08:19:05.804Z,21.10
2018-08-31T08:21:33.911Z,21.70
2018-08-31T08:24:02.093Z,22.30
2018-08-31T08:26:30.153Z,22.40
2018-08-31T08:28:58.240Z,22.20
2018-08-31T08:31:26.291Z,22.40
2018-08-31T08:33:54.380Z,22.50
2018-08-31T08:36:22.488Z,22.50
2018-08-31T08:38:50.572Z,22.40
2018-08-31T08:41:18.654Z,22.50
2018-08-31T08:43:46.721Z,22.50
2018-08-31T08:46:14.855Z,22.50
2018-08-31T08:48:43.049Z,22.80
2018-08-31T08:51:11.009Z,23.40
2018-08-31T08:53:39.085Z,24.00
2018-08-31T08:56:07.595Z,24.40
2018-08-31T08:58:35.673Z,24.60
2018-08-31T09:01:03.737Z,24.80
2018-08-31T09:03:31.858Z,25.00
2018-08-31T09:05:59.922Z,24.70
2018-08-31T09:08:28.781Z,24.50
2018-08-31T09:10:56.831Z,23.90
2018-08-31T09:13:24.888Z,23.70
2018-08-31T09:15:52.950Z,23.80
2018-08-31T09:18:24.547Z,24.00
2018-08-31T09:20:52.629Z,23.90
2018-08-31T09:23:20.667Z,23.70
2018-08-31T09:25:48.745Z,23.30
2018-08-31T09:28:16.801Z,22.90
2018-08-31T09:30:46.115Z,22.80
2018-08-31T09:33:15.820Z,23.10
2018-08-31T09:35:43.922Z,23.50
2018-08-31T09:38:12.045Z,24.00
2018-08-31T09:40:40.169Z,24.50
2018-08-31T09:43:08.755Z,25.00
2018-08-31T09:45:36.845Z,24.90
2018-08-31T09:48:05.568Z,24.70
2018-08-31T09:50:33.649Z,24.10
2018-08-31T09:53:01.725Z,24.00
2018-08-31T09:55:29.803Z,23.80
2018-08-31T09:57:58.253Z,23.50
2018-08-31T10:00:31.927Z,23.40
2018-08-31T10:03:05.910Z,23.30
2018-08-31T10:05:34.200Z,23.20
2018-08-31T10:08:02.469Z,23.20
2018-08-31T10:10:30.552Z,23.20
2018-08-31T10:12:58.628Z,23.50
2018-08-31T10:15:26.688Z,23.70
2018-08-31T10:17:54.837Z,24.00
2018-08-31T10:20:22.899Z,24.40
2018-08-31T10:22:51.119Z,24.50
2018-08-31T10:25:19.188Z,24.20
2018-08-31T10:27:47.240Z,24.00
2018-08-31T10:30:15.411Z,24.00
2018-08-31T10:32:43.396Z,23.70
2018-08-31T10:35:11.713Z,23.60
2018-08-31T10:37:39.809Z,23.20
2018-08-31T10:40:07.889Z,22.80
2018-08-31T10:42:35.948Z,22.50
2018-08-31T10:45:04.231Z,22.30
2018-08-31T10:47:32.411Z,22.30
2018-08-31T10:50:00.484Z,22.30
2018-08-31T10:52:28.642Z,22.20
2018-08-31T10:54:56.802Z,22.30
2018-08-31T10:57:25.400Z,22.30
2018-08-31T10:59:53.551Z,22.20
2018-08-31T11:02:21.741Z,22.20
2018-08-31T11:04:49.910Z,22.10
2018-08-31T11:07:17.982Z,22.00
2018-08-31T11:09:46.564Z,22.00
2018-08-31T11:12:14.712Z,22.00
2018-08-31T11:14:42.817Z,21.90
2018-08-31T11:17:10.896Z,21.70
2018-08-31T11:19:39.347Z,21.50
2018-08-31T11:22:07.510Z,21.20
2018-08-31T11:24:35.592Z,21.10
2018-08-31T11:27:03.647Z,21.10
2018-08-31T11:29:31.744Z,21.00
2018-08-31T11:31:59.936Z,20.90
2018-08-31T11:34:28.003Z,20.80
2018-08-31T11:36:56.089Z,20.80
2018-08-31T11:39:24.162Z,20.60
2018-08-31T11:41:52.227Z,20.50
2018-08-31T11:44:20.294Z,20.50
2018-08-31T11:46:48.365Z,20.60
2018-08-31T11:49:16.525Z,20.60
2018-08-31T11:51:44.854Z,20.70
2018-08-31T11:54:13.924Z,20.70
2018-08-31T11:56:42.037Z,20.60
2018-08-31T11:59:10.104Z,20.60
2018-08-31T12:01:38.161Z,20.70
2018-08-31T12:04:06.275Z,20.80
2018-08-31T12:06:34.379Z,20.70
2018-08-31T12:09:02.427Z,20.50
2018-08-31T12:11:30.609Z,20.30
2018-08-31T12:13:58.776Z,20.40
2018-08-31T12:16:26.977Z,20.50
2018-08-31T12:18:55.041Z,20.70
2018-08-31T12:21:23.124Z,20.90
2018-08-31T12:23:51.262Z,21.00
2018-08-31T12:26:19.340Z,21.20
2018-08-31T12:28:47.405Z,21.30
2018-08-31T12:31:15.480Z,21.20
2018-08-31T12:33:43.553Z,21.10
2018-08-31T12:36:11.826Z,21.20
2018-08-31T12:38:40.055Z,21.30
2018-08-31T12:41:08.160Z,21.30
2018-08-31T12:43:36.295Z,21.30
2018-08-31T12:46:04.419Z,21.00
2018-08-31T12:48:32.497Z,20.80
2018-08-31T12:51:00.662Z,20.60
2018-08-31T12:53:28.832Z,20.50
2018-08-31T12:55:56.909Z,20.40
2018-08-31T12:58:24.964Z,20.30
2018-08-31T13:00:53.045Z,20.20
2018-08-31T13:03:21.220Z,20.20
2018-08-31T13:05:49.280Z,20.20
2018-08-31T13:08:17.357Z,20.10
2018-08-31T13:10:45.432Z,20.00
2018-08-31T13:13:13.700Z,19.90
2018-08-31T13:15:41.758Z,19.90
2018-08-31T13:18:09.845Z,20.00
2018-08-31T13:20:37.904Z,20.00
2018-08-31T13:23:05.982Z,20.00
2018-08-31T13:25:34.046Z,19.90
2018-08-31T13:28:02.110Z,19.80
2018-08-31T13:30:30.164Z,19.80
2018-08-31T13:32:58.251Z,19.80
2018-08-31T13:35:26.449Z,19.70
2018-08-31T13:37:54.652Z,19.90
2018-08-31T13:40:22.811Z,20.00
2018-08-31T13:42:50.947Z,20.00
2018-08-31T13:45:19.016Z,19.90
2018-08-31T13:47:47.109Z,19.70
2018-08-31T13:50:15.159Z,19.60
2018-08-31T13:52:43.316Z,19.50
2018-08-31T13:55:11.338Z,19.40
2018-08-31T13:57:39.405Z,19.40
2018-08-31T14:00:07.546Z,19.50
2018-08-31T14:02:35.588Z,19.40
2018-08-31T14:05:03.655Z,19.40
2018-08-31T14:07:31.758Z,19.50
2018-08-31T14:09:59.812Z,19.60
2018-08-31T14:12:27.880Z,19.70
2018-08-31T14:14:55.981Z,19.60
2018-08-31T14:17:24.151Z,19.60
2018-08-31T14:19:52.212Z,19.60
2018-08-31T14:22:22.709Z,19.60
2018-08-31T14:24:50.810Z,19.60
2018-08-31T14:27:18.875Z,19.50
2018-08-31T14:29:47.050Z,19.60
2018-08-31T14:32:15.036Z,19.60
2018-08-31T14:34:43.089Z,19.50
2018-08-31T14:37:11.371Z,19.50
2018-08-31T14:39:39.442Z,19.50
2018-08-31T14:42:07.528Z,19.40
2018-08-31T14:44:35.624Z,19.40
2018-08-31T14:47:03.695Z,19.30
2018-08-31T14:49:31.776Z,19.10
2018-08-31T14:51:59.851Z,19.10
2018-08-31T14:54:27.960Z,19.20
2018-08-31T14:56:56.340Z,19.30
2018-08-31T14:59:24.400Z,19.30
2018-08-31T15:01:52.476Z,19.40
2018-08-31T15:04:20.592Z,19.40
2018-08-31T15:06:48.715Z,19.50
2018-08-31T15:09:16.799Z,19.50
2018-08-31T15:11:44.891Z,19.50
2018-08-31T15:14:12.981Z,19.60
2018-08-31T15:16:41.120Z,19.70
2018-08-31T15:19:09.172Z,19.70
2018-08-31T15:21:37.242Z,19.70
2018-08-31T15:24:05.319Z,19.80
2018-08-31T15:26:33.381Z,19.80
2018-08-31T15:29:01.467Z,19.70
2018-08-31T15:31:29.911Z,19.70
2018-08-31T15:33:58.031Z,19.70
2018-08-31T15:36:26.084Z,19.60
2018-08-31T15:38:54.197Z,19.50
2018-08-31T15:41:22.360Z,19.50
2018-08-31T15:43:50.561Z,19.40
2018-08-31T15:46:18.644Z,19.40
2018-08-31T15:48:46.707Z,19.40
2018-08-31T15:51:15.433Z,19.40
2018-08-31T15:53:44.043Z,19.40
2018-08-31T15:56:12.207Z,19.40
2018-08-31T15:58:40.204Z,19.30
2018-08-31T16:01:08.243Z,19.30
2018-08-31T16:03:36.328Z,19.30
2018-08-31T16:06:04.405Z,19.30
2018-08-31T16:08:33.247Z,19.20
2018-08-31T16:11:01.428Z,19.20
2018-08-31T16:13:29.505Z,19.20
2018-08-31T16:15:57.932Z,19.10
2018-08-31T16:18:26.097Z,19.10
2018-08-31T16:20:54.215Z,19.10
2018-08-31T16:23:23.889Z,19.00
2018-08-31T16:25:51.928Z,19.00
2018-08-31T16:28:19.988Z,18.90
2018-08-31T16:30:48.073Z,18.90
2018-08-31T16:33:16.247Z,18.80
2018-08-31T16:35:44.308Z,18.80
2018-08-31T16:38:12.412Z,18.80
2018-08-31T16:40:40.462Z,18.80
2018-08-31T16:43:10.614Z,18.70
2018-08-31T16:45:38.796Z,18.70
2018-08-31T16:48:06.858Z,18.60
2018-08-31T16:50:34.903Z,18.60
2018-08-31T16:53:02.965Z,18.50
2018-08-31T16:55:31.015Z,18.40
2018-08-31T16:57:59.326Z,18.40
2018-08-31T17:00:27.404Z,18.30
2018-08-31T17:02:55.452Z,18.20
2018-08-31T17:05:24.033Z,18.10
2018-08-31T17:07:52.167Z,18.00
2018-08-31T17:10:20.212Z,18.00
2018-08-31T17:12:48.325Z,17.90
2018-08-31T17:15:16.396Z,17.90
2018-08-31T17:17:44.477Z,17.80
2018-08-31T17:20:12.541Z,17.70
2018-08-31T17:22:40.718Z,17.70
2018-08-31T17:25:08.968Z,17.70
2018-08-31T17:27:42.413Z,17.60
2018-08-31T17:30:16.005Z,17.60
2018-08-31T17:32:49.507Z,17.60
2018-08-31T17:35:23.029Z,17.60
2018-08-31T17:37:51.272Z,17.60
2018-08-31T17:40:19.861Z,17.60
2018-08-31T17:42:47.902Z,17.60
2018-08-31T17:45:18.575Z,17.50
2018-08-31T17:47:47.126Z,17.50
2018-08-31T17:50:15.584Z,17.40
2018-08-31T17:52:43.685Z,17.40
2018-08-31T17:55:11.932Z,17.30
2018-08-31T17:57:40.024Z,17.20
2018-08-31T18:00:08.980Z,17.10
2018-08-31T18:02:37.086Z,17.00
2018-08-31T18:05:05.228Z,16.90
2018-08-31T18:07:33.584Z,16.80
2018-08-31T18:10:01.653Z,16.70
2018-08-31T18:12:29.777Z,16.60
2018-08-31T18:14:58.267Z,16.60
2018-08-31T18:17:26.320Z,16.50
2018-08-31T18:19:54.392Z,16.40
2018-08-31T18:22:22.488Z,16.30
2018-08-31T18:24:50.584Z,16.30
2018-08-31T18:27:18.718Z,16.20
2018-08-31T18:29:46.867Z,16.10
2018-08-31T18:32:14.916Z,16.00
2018-08-31T18:34:43.030Z,15.90
2018-08-31T18:37:11.176Z,15.90
2018-08-31T18:39:39.172Z,15.80
2018-08-31T18:42:07.300Z,15.80
2018-08-31T18:44:35.352Z,15.70
2018-08-31T18:47:03.419Z,15.70
2018-08-31T18:49:31.560Z,15.60
2018-08-31T18:51:59.605Z,15.50
2018-08-31T18:54:27.707Z,15.50
2018-08-31T18:56:55.760Z,15.40
2018-08-31T18:59:23.841Z,15.40
2018-08-31T19:01:51.887Z,15.30
2018-08-31T19:04:19.961Z,15.20
2018-08-31T19:06:48.898Z,15.20
2018-08-31T19:09:16.952Z,15.20
2018-08-31T19:11:45.615Z,15.10
2018-08-31T19:14:13.680Z,15.10
2018-08-31T19:16:41.733Z,15.00
2018-08-31T19:19:09.776Z,15.00
2018-08-31T19:21:37.845Z,15.00
2018-08-31T19:24:05.908Z,14.90
2018-08-31T19:26:33.957Z,14.90
2018-08-31T19:29:02.037Z,14.90
2018-08-31T19:31:30.104Z,14.90
2018-08-31T19:33:58.133Z,14.80
2018-08-31T19:36:26.233Z,14.80
2018-08-31T19:38:54.381Z,14.70
2018-08-31T19:41:22.435Z,14.70
2018-08-31T19:43:50.483Z,14.60
2018-08-31T19:46:18.536Z,14.60
2018-08-31T19:48:46.777Z,14.60
2018-08-31T19:51:14.840Z,14.60
2018-08-31T19:53:42.947Z,14.60
2018-08-31T19:56:10.968Z,14.70
2018-08-31T19:58:39.048Z,14.70
2018-08-31T20:01:07.255Z,14.70
2018-08-31T20:03:35.298Z,14.70
2018-08-31T20:06:03.371Z,14.70
2018-08-31T20:08:31.415Z,14.70
2018-08-31T20:10:59.469Z,14.70
2018-08-31T20:13:27.590Z,14.60
2018-08-31T20:15:55.593Z,14.60
2018-08-31T20:18:23.720Z,14.60
2018-08-31T20:20:51.814Z,14.60
2018-08-31T20:23:19.860Z,14.50
2018-08-31T20:25:47.907Z,14.50
2018-08-31T20:28:16.137Z,14.40
2018-08-31T20:30:44.201Z,14.40
2018-08-31T20:33:12.257Z,14.40
2018-08-31T20:35:40.321Z,14.40
2018-08-31T20:38:08.492Z,14.30
2018-08-31T20:40:36.556Z,14.30
2018-08-31T20:43:04.807Z,14.30
2018-08-31T20:45:32.896Z,14.30
2018-08-31T20:48:01.206Z,14.20
2018-08-31T20:50:29.501Z,14.20
2018-08-31T20:52:57.543Z,14.30
2018-08-31T20:55:25.604Z,14.30
2018-08-31T20:57:53.653Z,14.20
2018-08-31T21:00:21.721Z,14.20
2018-08-31T21:02:49.755Z,14.10
2018-08-31T21:05:17.825Z,14.10
2018-08-31T21:07:45.884Z,14.00
2018-08-31T21:10:13.964Z,14.00
2018-08-31T21:12:42.016Z,14.00
2018-08-31T21:15:10.069Z,14.00
2018-08-31T21:17:38.116Z,14.10
2018-08-31T21:20:06.225Z,14.10
2018-08-31T21:22:34.291Z,14.10
2018-08-31T21:25:02.349Z,14.10
2018-08-31T21:27:30.411Z,14.10
2018-08-31T21:29:58.470Z,14.00
2018-08-31T21:32:26.743Z,14.00
2018-08-31T21:34:54.784Z,13.90
2018-08-31T21:37:22.846Z,13.80
2018-08-31T21:39:50.916Z,13.80
2018-08-31T21:42:19.065Z,13.70
2018-08-31T21:44:47.079Z,13.70
2018-08-31T21:47:15.141Z,13.70
2018-08-31T21:49:43.191Z,13.70
2018-08-31T21:52:11.266Z,13.60
2018-08-31T21:54:39.317Z,13.60
2018-08-31T21:57:07.563Z,13.60
2018-08-31T21:59:35.625Z,13.60
2018-08-31T22:02:03.749Z,13.60
2018-08-31T22:04:31.887Z,13.50
2018-08-31T22:06:59.935Z,13.60
2018-08-31T22:09:28.000Z,13.60
2018-08-31T22:11:56.120Z,13.60
2018-08-31T22:14:24.262Z,13.60
2018-08-31T22:16:52.325Z,13.60
2018-08-31T22:19:20.376Z,13.50
2018-08-31T22:21:48.444Z,13.50
2018-08-31T22:24:16.507Z,13.50
2018-08-31T22:26:44.579Z,13.50
2018-08-31T22:29:12.636Z,13.50
2018-08-31T22:31:40.717Z,13.40
2018-08-31T22:34:08.772Z,13.40
2018-08-31T22:36:36.844Z,13.30
2018-08-31T22:39:07.242Z,13.30
2018-08-31T22:41:35.341Z,13.20
2018-08-31T22:44:04.061Z,13.20
2018-08-31T22:46:32.592Z,13.20
2018-08-31T22:49:00.784Z,13.10
2018-08-31T22:51:28.844Z,13.10
2018-08-31T22:53:56.985Z,13.20
2018-08-31T22:56:25.077Z,13.20
2018-08-31T22:58:53.156Z,13.10
2018-08-31T23:01:21.227Z,13.20
2018-08-31T23:03:49.273Z,13.10
2018-08-31T23:06:17.320Z,13.10
2018-08-31T23:08:45.375Z,13.10
2018-08-31T23:11:13.433Z,13.10
2018-08-31T23:13:43.951Z,13.20
2018-08-31T23:16:12.003Z,13.20
2018-08-31T23:18:40.347Z,13.30
2018-08-31T23:21:09.149Z,13.30
2018-08-31T23:23:42.775Z,13.20
2018-08-31T23:26:10.823Z,13.20
2018-08-31T23:28:38.867Z,13.20
2018-08-31T23:31:06.917Z,13.20
2018-08-31T23:33:34.968Z,13.10
2018-08-31T23:36:03.024Z,13.10
2018-08-31T23:38:31.090Z,13.00
2018-08-31T23:40:59.158Z,13.00
2018-08-31T23:43:27.303Z,13.00
2018-08-31T23:45:55.475Z,13.00
2018-08-31T23:48:23.535Z,13.00
2018-08-31T23:50:51.591Z,13.00
2018-08-31T23:53:19.636Z,13.00
2018-08-31T23:55:47.680Z,13.00
2018-08-31T23:58:15.737Z,13.00
